Time;durP1;ratioP1;P1;durP2;ratioP2;P2;SDS_P1;SDS_P2;PMS_P1;PMS_P2;Temp;Humidity;BMP_temperature;BMP_pressure;BME280_temperature;BME280_humidity;BME280_pressure;Samples;Min_cycle;Max_cycle;Signal;HPM_P1;HPM_P2
2023/04/30 04:20:22;;;;;;;3.33;2.40;;;;;;;;;;20865625;28;20226;-81
2023/04/30 04:30:25;;;;;;;3.20;2.57;;;;;;;;;;20959383;28;20312;-80
2023/04/30 04:40:27;;;;;;;4.03;2.40;;;;;;;;;;20983645;28;20226;-81
2023/04/30 04:50:28;;;;;;;3.00;2.30;;;;;;;;;;20876603;28;20645;-80
2023/04/30 05:00:30;;;;;;;2.83;2.10;;;;;;;;;;20890896;28;20222;-81
2023/04/30 05:10:33;;;;;;;3.43;2.83;;;;;;;;;;20826072;28;20699;-80
2023/04/30 05:20:35;;;;;;;2.80;2.17;;;;;;;;;;20825165;28;20293;-81
2023/04/30 05:30:37;;;;;;;2.77;2.43;;;;;;;;;;20826572;28;20219;-82
2023/04/30 05:40:40;;;;;;;5.10;2.53;;;;;;;;;;20874652;28;20225;-80
2023/04/30 05:50:42;;;;;;;3.47;2.30;;;;;;;;;;20893298;28;20260;-81
2023/04/30 06:00:43;;;;;;;3.57;2.57;;;;;;;;;;20961688;28;20225;-80
2023/04/30 06:10:45;;;;;;;3.87;2.33;;;;;;;;;;20907419;28;20731;-81
2023/04/30 06:20:49;;;;;;;3.47;2.30;;;;;;;;;;20905055;28;20230;-80
2023/04/30 06:30:52;;;;;;;3.00;2.37;;;;;;;;;;20906045;28;20222;-80
2023/04/30 06:40:54;;;;;;;3.90;2.10;;;;;;;;;;20905752;28;20218;-81
2023/04/30 06:50:56;;;;;;;2.40;2.10;;;;;;;;;;20902306;28;20753;-81
2023/04/30 07:00:58;;;;;;;3.03;2.30;;;;;;;;;;20902943;28;20267;-80
2023/04/30 07:10:59;;;;;;;2.60;2.27;;;;;;;;;;20903021;28;20226;-79
2023/04/30 07:21:01;;;;;;;3.33;2.17;;;;;;;;;;20903574;28;20221;-80
2023/04/30 07:31:03;;;;;;;3.10;1.90;;;;;;;;;;20925303;28;20320;-80
2023/04/30 07:41:05;;;;;;;2.93;1.60;;;;;;;;;;20871947;28;20214;-80
2023/04/30 07:51:06;;;;;;;2.27;1.30;;;;;;;;;;20900708;28;20287;-81
2023/04/30 08:01:08;;;;;;;3.10;1.50;;;;;;;;;;20889038;28;20240;-81
2023/04/30 08:11:11;;;;;;;2.40;1.53;;;;;;;;;;20915293;28;20218;-81
2023/04/30 08:21:13;;;;;;;2.37;1.60;;;;;;;;;;20914311;28;20225;-81
2023/04/30 08:31:18;;;;;;;2.33;1.23;;;;;;;;;;20914913;28;20229;-81
2023/04/30 08:41:25;;;;;;;1.77;1.20;;;17.10;99.90;;;;;;20912718;28;20221;-80
2023/04/30 08:51:27;;;;;;;2.03;1.03;;;;;;;;;;20912481;28;20478;-79
2023/04/30 09:01:29;;;;;;;1.47;0.90;;;;;;;;;;20911237;28;20231;-80
2023/04/30 09:11:31;;;;;;;1.60;0.97;;;;;;;;;;20934966;28;20209;-81
2023/04/30 09:21:34;;;;;;;1.57;1.00;;;;;;;;;;20909343;28;20287;-80
2023/04/30 09:31:36;;;;;;;1.67;1.23;;;;;;;;;;20908611;28;20230;-80
2023/04/30 09:41:38;;;;;;;2.20;1.20;;;;;;;;;;20908280;28;20214;-80
2023/04/30 09:51:53;;;;;;;1.53;1.10;;;;;;;;;;20909090;28;20225;-80
2023/04/30 10:01:55;;;;;;;1.30;0.80;;;;;;;;;;20908000;28;20902;-81
2023/04/30 10:11:57;;;;;;;1.77;0.80;;;;;;;;;;20906332;28;20636;-81
2023/04/30 10:22:00;;;;;;;4.40;0.80;;;;;;;;;;20904790;28;20630;-79
2023/04/30 10:32:04;;;;;;;1.30;0.77;;;17.40;99.90;;;;;;20906391;28;20234;-81
2023/04/30 10:42:06;;;;;;;0.73;0.53;;;;;;;;;;20891609;28;20222;-80
2023/04/30 10:52:10;;;;;;;1.80;0.80;;;;;;;;;;20922556;28;20275;-80
2023/04/30 11:02:18;;;;;;;0.87;0.70;;;;;;;;;;20904872;28;20214;-80
2023/04/30 11:12:27;;;;;;;0.80;0.53;;;;;;;;;;20905518;28;20209;-81
2023/04/30 11:22:29;;;;;;;1.00;0.70;;;17.60;99.90;;;;;;20905709;28;20283;-81
2023/04/30 11:32:34;;;;;;;3.20;0.60;;;17.70;99.90;;;;;;20904090;28;20238;-81
2023/04/30 11:42:38;;;;;;;1.17;0.70;;;17.90;99.90;;;;;;20916723;28;20272;-81
2023/04/30 11:52:40;;;;;;;0.87;0.70;;;;;;;;;;20924879;28;20229;-81
2023/04/30 12:02:44;;;;;;;1.10;0.80;;;;;;;;;;20996202;28;20213;-81
2023/04/30 12:12:47;;;;;;;0.93;0.60;;;18.50;99.90;;;;;;21004416;28;20287;-81
2023/04/30 12:22:49;;;;;;;1.03;0.67;;;;;;;;;;21021352;28;20247;-83
2023/04/30 12:32:51;;;;;;;1.47;0.77;;;;;;;;;;20999684;28;20225;-81
2023/04/30 12:43:03;;;;;;;0.70;0.57;;;;;;;;;;20981749;28;20759;-82
2023/04/30 12:53:08;;;;;;;1.03;0.50;;;;;;;;;;20917065;28;20280;-81
2023/04/30 13:03:10;;;;;;;0.70;0.50;;;;;;;;;;20939670;28;20220;-82
2023/04/30 13:13:12;;;;;;;2.53;0.57;;;;;;;;;;20963061;28;20283;-82
2023/04/30 13:23:13;;;;;;;1.00;0.50;;;;;;;;;;20906386;28;20222;-82
2023/04/30 13:33:15;;;;;;;1.77;0.50;;;;;;;;;;20909257;28;20287;-84
2023/04/30 13:43:17;;;;;;;0.40;0.40;;;;;;;;;;20910387;28;20671;-82
2023/04/30 13:53:19;;;;;;;0.63;0.50;;;;;;;;;;20896614;28;20593;-81
2023/04/30 14:03:20;;;;;;;0.50;0.50;;;;;;;;;;20916993;28;20635;-81
2023/04/30 14:13:22;;;;;;;0.53;0.40;;;;;;;;;;20927575;28;20292;-81
2023/04/30 14:23:24;;;;;;;0.53;0.37;;;;;;;;;;20952362;28;20310;-81
2023/04/30 14:33:26;;;;;;;1.03;0.63;;;;;;;;;;20955051;28;20229;-81
2023/04/30 14:43:28;;;;;;;1.00;0.57;;;;;;;;;;20940052;28;20288;-83
2023/04/30 14:53:29;;;;;;;0.97;0.40;;;;;;;;;;20900791;28;20206;-81
2023/04/30 15:03:31;;;;;;;1.57;0.50;;;;;;;;;;20955704;28;20290;-81
2023/04/30 15:13:33;;;;;;;0.57;0.50;;;;;;;;;;20962223;28;20250;-80
2023/04/30 15:23:35;;;;;;;1.33;0.63;;;;;;;;;;20952242;28;20238;-81
2023/04/30 15:33:40;;;;;;;0.80;0.43;;;;;;;;;;20996415;28;20230;-81
2023/04/30 15:43:42;;;;;;;1.83;0.47;;;;;;;;;;21003414;28;20218;-82
2023/04/30 15:53:43;;;;;;;0.43;0.30;;;;;;;;;;21000473;28;20255;-81
2023/04/30 16:03:45;;;;;;;0.30;0.30;;;;;;;;;;20971064;28;20214;-81
2023/04/30 16:13:47;;;;;;;0.30;0.30;;;;;;;;;;20914277;28;20230;-81
2023/04/30 16:23:50;;;;;;;0.47;0.40;;;;;;;;;;20913348;28;20284;-81
2023/04/30 16:33:51;;;;;;;0.43;0.37;;;;;;;;;;20912908;28;20261;-82
2023/04/30 16:43:53;;;;;;;0.60;0.43;;;;;;;;;;20878972;28;20205;-81
2023/04/30 16:53:55;;;;;;;0.30;0.30;;;;;;;;;;20913075;28;20592;-81
2023/04/30 17:03:57;;;;;;;0.60;0.40;;;;;;;;;;20926141;28;20574;-81
2023/04/30 17:13:58;;;;;;;0.50;0.30;;;;;;;;;;20975417;28;20226;-82
2023/04/30 17:24:00;;;;;;;0.30;0.30;;;;;;;;;;20983399;28;20214;-81
2023/04/30 17:34:02;;;;;;;0.80;0.50;;;;;;;;;;20992133;28;20278;-80
2023/04/30 17:44:04;;;;;;;0.50;0.40;;;;;;;;;;20991631;28;20276;-81
2023/04/30 17:54:06;;;;;;;0.73;0.40;;;;;;;;;;20990005;28;20231;-83
2023/04/30 18:04:08;;;;;;;1.47;0.87;;;;;;;;;;20968090;28;20213;-81
2023/04/30 18:14:09;;;;;;;1.17;0.60;;;;;;;;;;20900356;28;20230;-82
2023/04/30 18:24:11;;;;;;;1.17;0.67;;;;;;;;;;20862626;28;20226;-80
2023/04/30 18:34:13;;;;;;;1.77;1.00;;;;;;;;;;20874270;28;20258;-83
2023/04/30 18:44:15;;;;;;;1.53;0.80;;;;;;;;;;20866774;28;20226;-83
2023/04/30 18:54:17;;;;;;;1.27;0.50;;;;;;;;;;20941175;28;20264;-80
2023/04/30 19:04:19;;;;;;;1.13;0.50;;;;;;;;;;20905078;28;20218;-80
2023/04/30 19:14:20;;;;;;;0.90;0.60;;;;;;;;;;20904062;28;20273;-80
2023/04/30 19:24:23;;;;;;;1.00;0.70;;;18.40;99.90;;;;;;20927517;28;20233;-82
2023/04/30 19:34:28;;;;;;;3.53;1.13;;;;;;;;;;20957105;28;20271;-80
2023/04/30 19:44:30;;;;;;;2.00;0.80;;;;;;;;;;20920733;28;20244;-80
2023/04/30 19:54:32;;;;;;;3.90;0.70;;;;;;;;;;20949536;28;20237;-80
2023/04/30 20:04:33;;;;;;;1.33;0.60;;;;;;;;;;20917967;28;20222;-80
2023/04/30 20:14:35;;;;;;;0.97;0.50;;;;;;;;;;20941885;28;20702;-80
2023/04/30 20:24:40;;;;;;;2.13;0.63;;;;;;;;;;21008093;28;20258;-82
2023/04/30 20:34:42;;;;;;;1.10;0.73;;;;;;;;;;21011504;28;20236;-80
2023/04/30 20:44:45;;;;;;;0.93;0.70;;;;;;;;;;20995775;28;20213;-83
2023/04/30 20:54:48;;;;;;;1.80;1.00;;;;;;;;;;20995604;28;20263;-83
2023/04/30 21:04:50;;;;;;;1.27;0.87;;;;;;;;;;20978495;28;20263;-80
2023/04/30 21:14:53;;;;;;;1.60;0.90;;;;;;;;;;20909576;28;20222;-80
2023/04/30 21:24:55;;;;;;;0.87;0.77;;;;;;;;;;20910048;28;20237;-80
2023/04/30 21:34:57;;;;;;;1.10;0.80;;;;;;;;;;20943686;28;20241;-80
2023/04/30 21:44:59;;;;;;;0.90;0.60;;;;;;;;;;20992778;28;20217;-80
2023/04/30 21:55:01;;;;;;;0.90;0.60;;;;;;;;;;20973861;28;20233;-80
2023/04/30 22:05:05;;;;;;;1.10;0.80;;;;;;;;;;20975837;28;20239;-81
2023/04/30 22:15:07;;;;;;;1.50;0.73;;;16.20;99.90;;;;;;20989818;28;20654;-80
2023/04/30 22:25:09;;;;;;;1.40;0.90;;;;;;;;;;20969626;28;20233;-81
2023/04/30 22:35:14;;;;;;;1.10;0.60;;;;;;;;;;21026609;28;20315;-81
2023/04/30 22:45:16;;;;;;;1.47;0.90;;;;;;;;;;20987936;28;20251;-81
2023/04/30 22:55:18;;;;;;;0.60;0.60;;;;;;;;;;20953860;28;20217;-81
2023/04/30 23:05:20;;;;;;;1.07;0.63;;;;;;;;;;20986379;28;20290;-81
2023/04/30 23:15:22;;;;;;;1.10;0.73;;;;;;;;;;20986269;28;20229;-81
2023/04/30 23:25:24;;;;;;;1.13;0.80;;;;;;;;;;20986928;28;20237;-81
2023/04/30 23:35:26;;;;;;;2.60;0.80;;;;;;;;;;20996080;28;20768;-80
2023/04/30 23:45:27;;;;;;;0.83;0.70;;;;;;;;;;21008361;28;20221;-81
2023/04/30 23:55:29;;;;;;;4.00;0.83;;;;;;;;;;21000180;28;20245;-81
